Time;durP1;ratioP1;P1;durP2;ratioP2;P2;SDS_P1;SDS_P2;PMS_P1;PMS_P2;Temp;Humidity;BMP_temperature;BMP_pressure;BME280_temperature;BME280_humidity;BME280_pressure;Samples;Min_cycle;Max_cycle;Signal;HPM_P1;HPM_P2
2024/04/05 00:02:09;;;;;;;3.47;1.50;;;;;;;-145.69;71.61;52214.66;5095304;28;20588;-79
2024/04/05 00:04:34;;;;;;;4.28;1.60;;;;;;;-145.69;71.71;52222.59;5095832;28;20202;-79
2024/04/05 00:07:02;;;;;;;2.55;1.45;;;;;;;-145.69;71.57;52210.72;5095836;28;20660;-81
2024/04/05 00:09:28;;;;;;;5.40;1.67;;;;;;;-145.69;71.51;52188.91;5096144;28;20197;-80
2024/04/05 00:11:54;;;;;;;5.75;1.50;;;;;;;-145.69;71.27;52196.84;5095940;28;20285;-80
2024/04/05 00:14:20;;;;;;;3.63;1.40;;;;;;;-145.69;71.48;52202.78;5096076;28;20202;-80
2024/04/05 00:16:46;;;;;;;3.95;1.42;;;;;;;-145.69;71.52;52206.75;5095636;28;20236;-80
2024/04/05 00:19:12;;;;;;;1.60;1.27;;;;;;;-145.69;70.95;52222.59;5095909;28;20248;-80
2024/04/05 00:21:38;;;;;;;6.20;1.20;;;;;;;-145.69;71.13;52270.13;5095494;28;20618;-81
2024/04/05 00:24:05;;;;;;;4.30;1.60;;;;;;;-145.69;70.85;52234.47;5095344;28;20201;-80
2024/04/05 00:26:32;;;;;;;4.03;1.58;;;;;;;-145.69;72.45;52234.47;5095705;28;20869;-80
2024/04/05 00:28:58;;;;;;;4.38;1.40;;;;;;;-145.69;71.85;52194.88;5095749;28;20208;-80
2024/04/05 00:31:24;;;;;;;3.70;1.40;;;;;;;-145.69;72.13;52236.44;5097381;28;20296;-80
2024/04/05 00:33:50;;;;;;;4.13;1.80;;;;;;;-145.69;71.39;52232.50;5088042;28;20203;-80
2024/04/05 00:36:16;;;;;;;6.87;1.60;;;;;;;-145.69;71.76;52198.81;5075509;28;20198;-80
2024/04/05 00:38:42;;;;;;;7.73;1.50;;;;;;;-145.69;71.89;52230.50;5075438;28;20301;-80
2024/04/05 00:41:09;;;;;;;2.40;1.23;;;;;;;-145.69;71.77;52214.66;5075087;28;20321;-80
2024/04/05 00:43:35;;;;;;;8.47;1.67;;;;;;;-145.69;72.01;52264.16;5075150;28;20203;-80
2024/04/05 00:46:04;;;;;;;5.40;1.77;;;;;;;-145.69;72.22;52218.63;5074601;28;20213;-79
2024/04/05 00:48:33;;;;;;;6.87;1.60;;;;;;;-145.69;73.12;52210.72;5075205;28;20277;-79
2024/04/05 00:50:59;;;;;;;6.37;1.77;;;;;;;-145.69;72.83;52212.69;5075005;28;20564;-81
2024/04/05 00:53:29;;;;;;;6.03;1.70;;;;;;;-145.69;72.96;52242.38;5090389;28;20276;-79
2024/04/05 00:55:58;;;;;;;4.00;1.77;;;;;;;-145.69;73.07;52222.59;5095456;28;20209;-79
2024/04/05 00:58:26;;;;;;;4.30;1.60;;;;;;;-145.69;72.75;52248.34;5094745;28;20202;-80
2024/04/05 01:00:53;;;;;;;5.70;1.60;;;;;;;-145.69;73.13;52216.66;5095048;28;20226;-79
2024/04/05 01:03:19;;;;;;;4.63;1.63;;;;;;;-145.69;73.65;52234.47;5094513;28;20637;-80
2024/04/05 01:05:47;;;;;;;3.30;1.40;;;;;;;-145.69;73.35;52230.50;5095104;28;20204;-79
2024/04/05 01:08:14;;;;;;;4.47;1.37;;;;;;;-145.69;72.86;52254.28;5094825;28;20201;-79
2024/04/05 01:10:44;;;;;;;8.73;1.87;;;;;;;-145.69;73.10;52234.47;5094886;28;20206;-81
2024/04/05 01:13:11;;;;;;;4.33;1.53;;;;;;;-145.69;73.52;52230.50;5094891;28;20190;-81
2024/04/05 01:15:40;;;;;;;3.80;1.40;;;;;;;-145.69;73.92;52214.66;5094702;28;20619;-81
2024/04/05 01:18:07;;;;;;;3.23;1.67;;;;;;;-145.69;74.29;52222.59;5094152;28;20593;-81
2024/04/05 01:20:35;;;;;;;7.00;1.30;;;;;;;-145.69;74.82;52210.72;5090003;28;20198;-80
2024/04/05 01:23:01;;;;;;;3.83;1.50;;;;;;;-145.69;74.58;52224.56;5094637;28;20236;-80
2024/04/05 01:25:30;;;;;;;4.73;1.40;;;;;;;-145.69;74.77;52196.84;5094485;28;20202;-80
2024/04/05 01:27:56;;;;;;;3.03;1.40;;;;;;;-145.69;75.02;52210.72;5094753;28;20285;-80
2024/04/05 01:30:23;;;;;;;1.77;1.23;;;;;;;-145.69;74.19;52204.75;5094622;28;20568;-81
2024/04/05 01:32:53;;;;;;;5.43;1.50;;;;;;;-145.69;74.49;52198.81;5094018;28;20200;-80
2024/04/05 01:35:19;;;;;;;8.10;1.50;;;;;;;-145.69;73.95;52266.16;5094266;28;20665;-80
2024/04/05 01:37:45;;;;;;;12.03;1.80;;;;;;;-145.69;74.25;52222.59;5094168;28;20202;-80
2024/04/05 01:40:11;;;;;;;5.47;1.63;;;;;;;-145.69;73.97;52222.59;5094605;28;20201;-80
2024/04/05 01:42:38;;;;;;;5.53;1.50;;;;;;;-145.69;74.31;52224.56;5094448;28;20233;-80
2024/04/05 01:45:05;;;;;;;6.77;1.10;;;;;;;-145.69;74.35;52244.38;5094097;28;20656;-80
2024/04/05 01:47:31;;;;;;;3.17;1.30;;;;;;;-145.69;74.31;52256.25;5094035;28;20213;-80
2024/04/05 01:49:58;;;;;;;7.33;2.00;;;;;;;-145.69;74.66;52254.28;5094227;28;20194;-79
2024/04/05 01:52:23;;;;;;;3.57;1.63;;;;;;;-145.69;74.92;52240.41;5093506;28;20190;-80
2024/04/05 01:54:50;;;;;;;4.83;1.77;;;;;;;-145.69;74.81;52236.44;5093868;28;20200;-79
2024/04/05 01:57:16;;;;;;;8.80;1.73;;;;;;;-145.69;75.03;52214.66;5092363;28;20676;-80
2024/04/05 01:59:48;;;;;;;7.13;1.27;;;;;;;-145.69;74.71;52246.34;5093612;28;20204;-81
2024/04/05 02:02:13;;;;;;;2.67;1.40;;;;;;;-145.69;74.46;52218.63;5093867;28;20226;-80
2024/04/05 02:04:40;;;;;;;4.47;1.67;;;;;;;-145.69;74.54;52220.59;5093631;28;20531;-80
2024/04/05 02:07:05;;;;;;;6.00;1.57;;;;;;;-145.69;74.99;52226.53;5093663;28;20205;-79
2024/04/05 02:09:32;;;;;;;5.67;1.47;;;;;;;-145.69;74.62;52250.31;5093673;28;20863;-79
2024/04/05 02:11:58;;;;;;;8.93;1.47;;;;;;;-145.69;74.51;52206.75;5093410;28;20656;-80
2024/04/05 02:14:25;;;;;;;5.43;1.52;;;;;;;-145.69;75.62;52258.22;5092681;28;20439;-79
2024/04/05 02:16:54;;;;;;;9.13;1.73;;;;;;;-145.69;74.93;52222.59;5093446;28;20625;-80
2024/04/05 02:19:21;;;;;;;2.47;1.80;;;;;;;-145.69;74.88;52250.31;5093560;28;20718;-81
2024/04/05 02:21:46;;;;;;;12.03;1.53;;;;;;;-145.69;74.70;52264.16;5093219;28;20307;-80
2024/04/05 02:24:16;;;;;;;5.93;2.07;;;;;;;-145.69;74.58;52264.16;5093388;28;20635;-80
2024/04/05 02:26:41;;;;;;;1.60;1.30;;;;;;;-145.69;74.19;52216.66;5093330;28;20206;-80
2024/04/05 02:29:08;;;;;;;4.47;1.37;;;;;;;-145.69;73.87;52242.38;5110473;28;20223;-80
2024/04/05 02:31:33;;;;;;;10.47;1.43;;;;;;;-145.69;73.97;52206.75;5113554;28;20560;-79
2024/04/05 02:34:03;;;;;;;8.27;1.80;;;;;;;-145.69;73.65;52214.66;5113419;28;20205;-80
2024/04/05 02:36:29;;;;;;;2.80;1.60;;;;;;;-145.69;73.39;52254.28;5114011;28;20250;-80
2024/04/05 02:38:55;;;;;;;5.73;1.97;;;;;;;-145.69;73.43;52220.59;5078716;28;20198;-79
2024/04/05 02:41:21;;;;;;;11.13;1.53;;;;;;;-145.69;73.50;52194.88;5072768;28;20697;-79
2024/04/05 02:43:50;;;;;;;4.00;1.40;;;;;;;-145.69;73.40;52256.25;5072534;28;20198;-79
2024/04/05 02:46:16;;;;;;;4.43;1.33;;;;;;;-145.69;73.11;52234.47;5072886;28;20248;-79
2024/04/05 02:48:42;;;;;;;3.60;1.27;;;;;;;-145.69;74.52;52242.38;5073021;28;20207;-80
2024/04/05 02:51:09;;;;;;;9.63;1.27;;;;;;;-145.69;74.24;52196.84;5072601;28;20666;-79
2024/04/05 02:53:36;;;;;;;4.00;1.60;;;;;;;-145.69;74.48;52252.28;5086405;28;20285;-80
2024/04/05 02:56:01;;;;;;;4.30;2.07;;;;;;;-145.69;73.78;52242.38;5093289;28;20213;-79
2024/04/05 02:58:28;;;;;;;3.03;1.40;;;;;;;-145.69;74.08;52260.22;5092507;28;20198;-79
2024/04/05 03:00:54;;;;;;;1.73;1.40;;;;;;;-145.69;75.15;52254.28;5092707;28;20198;-79
2024/04/05 03:03:24;;;;;;;7.77;1.30;;;;;;;-145.69;74.75;52242.38;5092466;28;20561;-79
2024/04/05 03:05:50;;;;;;;6.22;1.80;;;;;;;-145.69;76.34;52244.38;5091961;28;20436;-79
2024/04/05 03:08:17;;;;;;;10.97;1.50;;;;;;;-145.69;75.83;52226.53;5092391;28;20561;-79
2024/04/05 03:10:43;;;;;;;5.97;1.93;;;;;;;-145.69;75.23;52258.22;5092904;28;20622;-79
2024/04/05 03:13:09;;;;;;;2.27;1.33;;;;;;;-145.69;74.91;52230.50;5092826;28;20284;-78
2024/04/05 03:15:35;;;;;;;7.87;1.90;;;;;;;-145.69;75.10;52228.53;5092194;28;20195;-79
2024/04/05 03:18:02;;;;;;;6.87;1.70;;;;;;;-145.69;75.13;52246.34;5092411;28;20246;-79
2024/04/05 03:20:29;;;;;;;2.93;1.30;;;;;;;-145.69;74.41;52262.19;5092912;28;20653;-79
2024/04/05 03:22:55;;;;;;;4.50;1.50;;;;;;;-145.69;74.76;52258.22;5092515;28;20313;-79
2024/04/05 03:25:22;;;;;;;3.23;1.60;;;;;;;-145.69;74.98;52238.44;5092403;28;20202;-79
2024/04/05 03:27:49;;;;;;;3.47;1.40;;;;;;;-145.69;75.02;52246.34;5092350;28;20193;-79
2024/04/05 03:30:17;;;;;;;9.47;1.60;;;;;;;-145.69;74.96;52291.91;5092510;28;20198;-79
2024/04/05 03:32:44;;;;;;;10.00;1.70;;;;;;;-145.69;75.12;52260.22;5092430;28;20267;-78
2024/04/05 03:35:09;;;;;;;8.03;1.70;;;;;;;-145.69;75.18;52270.13;5092582;28;20197;-79
2024/04/05 03:37:36;;;;;;;6.03;1.40;;;;;;;-145.69;74.83;52262.19;5092032;28;20205;-79
2024/04/05 03:40:02;;;;;;;4.13;1.70;;;;;;;-145.69;73.49;52248.34;5092472;28;20680;-79
2024/04/05 03:42:30;;;;;;;5.70;1.57;;;;;;;-145.69;73.13;52274.06;5092069;28;20232;-78
2024/04/05 03:44:56;;;;;;;6.97;1.50;;;;;;;-145.69;73.50;52266.16;5092189;28;20255;-79
2024/04/05 03:47:23;;;;;;;4.73;1.40;;;;;;;-145.69;73.04;52210.72;5092700;28;20205;-79
2024/04/05 03:49:48;;;;;;;6.03;1.60;;;;;;;-145.69;74.98;52278.03;5092386;28;20247;-78
2024/04/05 03:52:15;;;;;;;2.13;1.40;;;;;;;-145.69;75.30;52262.19;5091923;28;20190;-79
2024/04/05 03:54:41;;;;;;;5.00;1.90;;;;;;;-145.69;75.22;52252.28;5092410;28;20725;-79
2024/04/05 03:57:07;;;;;;;2.97;1.40;;;;;;;-145.69;74.89;52262.19;5091771;28;20194;-80
2024/04/05 03:59:34;;;;;;;3.83;1.60;;;;;;;-145.69;75.03;52254.28;5091307;28;20556;-79
2024/04/05 04:02:01;;;;;;;8.33;1.87;;;;;;;-145.69;74.87;52244.38;5092414;28;20562;-79
2024/04/05 04:04:27;;;;;;;5.57;1.80;;;;;;;-145.69;75.41;52274.06;5092239;28;20209;-79
2024/04/05 04:06:54;;;;;;;4.47;1.60;;;;;;;-145.69;75.35;52272.09;5092136;28;20683;-80
2024/04/05 04:09:20;;;;;;;5.97;1.80;;;;;;;-145.69;74.90;52268.13;5091941;28;20671;-79
2024/04/05 04:11:46;;;;;;;4.43;1.70;;;;;;;-145.69;74.86;52262.19;5092258;28;20202;-79
2024/04/05 04:14:13;;;;;;;2.83;1.27;;;;;;;-145.69;74.76;52226.53;5092020;28;20194;-79
2024/04/05 04:16:41;;;;;;;2.23;1.20;;;;;;;-145.69;74.76;52230.50;5091977;28;20320;-79
2024/04/05 04:19:11;;;;;;;5.23;1.37;;;;;;;-145.69;74.63;52254.28;5091992;28;20198;-79
2024/04/05 04:21:37;;;;;;;5.57;1.37;;;;;;;-145.69;74.84;52266.16;5094671;28;20313;-79
2024/04/05 04:24:03;;;;;;;2.67;1.40;;;;;;;-145.69;75.00;52278.03;5095944;28;20212;-79
2024/04/05 04:26:30;;;;;;;6.53;1.47;;;;;;;-145.69;74.65;52242.38;5095013;28;20190;-79
2024/04/05 04:28:57;;;;;;;5.17;1.60;;;;;;;-145.69;74.39;52256.25;5095390;28;20195;-79
2024/04/05 04:31:24;;;;;;;2.03;1.57;;;;;;;-145.69;74.78;52264.16;5095780;28;20197;-79
2024/04/05 04:33:52;;;;;;;4.70;1.70;;;;;;;-145.69;74.92;52266.16;5095224;28;20226;-80
2024/04/05 04:36:19;;;;;;;5.73;1.60;;;;;;;-145.69;74.73;52258.22;5095071;28;20653;-80
2024/04/05 04:38:44;;;;;;;3.27;1.27;;;;;;;-145.69;74.87;52220.59;5095596;28;20293;-79
2024/04/05 04:41:12;;;;;;;4.50;1.90;;;;;;;-145.69;74.63;52270.13;5095382;28;20646;-80
2024/04/05 04:43:39;;;;;;;7.67;1.60;;;;;;;-145.69;74.87;52289.91;5095632;28;20226;-79
2024/04/05 04:46:05;;;;;;;3.47;1.27;;;;;;;-145.69;74.87;52287.94;5082327;28;20609;-80
2024/04/05 04:48:31;;;;;;;7.33;1.30;;;;;;;-145.69;74.86;52258.22;5075315;28;20207;-79
2024/04/05 04:50:59;;;;;;;5.40;1.77;;;;;;;-145.69;74.95;52230.50;5075069;28;20206;-79
2024/04/05 04:53:25;;;;;;;8.77;1.67;;;;;;;-145.69;74.66;52256.25;5074647;28;20195;-79
2024/04/05 04:55:52;;;;;;;5.20;1.50;;;;;;;-145.69;74.58;52264.16;5077685;28;20255;-79
2024/04/05 04:58:18;;;;;;;6.23;1.43;;;;;;;-145.69;74.63;52301.81;5095107;28;20671;-80
2024/04/05 05:00:45;;;;;;;8.13;1.77;;;;;;;-145.69;74.91;52268.13;5095145;28;20212;-79
2024/04/05 05:03:11;;;;;;;3.03;1.23;;;;;;;-145.69;75.18;52252.28;5095029;28;20225;-79
2024/04/05 05:05:38;;;;;;;7.60;1.77;;;;;;;-145.69;74.68;52244.38;5094823;28;20194;-79
2024/04/05 05:08:07;;;;;;;4.23;1.43;;;;;;;-145.69;74.54;52289.91;5094167;28;20552;-81
2024/04/05 05:10:36;;;;;;;6.43;1.77;;;;;;;-145.69;74.63;52270.13;5095064;28;20308;-80
2024/04/05 05:13:04;;;;;;;6.70;1.50;;;;;;;-145.69;74.16;52224.56;5094957;28;20198;-80
2024/04/05 05:15:30;;;;;;;5.50;1.57;;;;;;;-145.69;74.13;52250.31;5094701;28;20198;-80
2024/04/05 05:17:58;;;;;;;11.97;1.40;;;;;;;-145.69;74.11;52252.28;5094828;28;20230;-79
2024/04/05 05:20:26;;;;;;;4.17;1.63;;;;;;;-145.69;74.40;52293.88;5094752;28;20259;-79
2024/04/05 05:22:52;;;;;;;5.90;1.60;;;;;;;-145.69;75.72;52254.28;5093924;28;20854;-80
2024/04/05 05:25:20;;;;;;;7.57;1.77;;;;;;;-145.69;75.16;52272.09;5094666;28;20198;-80
2024/04/05 05:27:46;;;;;;;5.73;1.57;;;;;;;-145.69;75.25;52230.50;5094196;28;20281;-80
2024/04/05 05:30:13;;;;;;;4.00;1.57;;;;;;;-145.69;74.52;52313.69;5094731;28;20209;-81
2024/04/05 05:32:39;;;;;;;3.13;1.43;;;;;;;-145.69;75.15;52272.09;5094342;28;20208;-80
2024/04/05 05:35:06;;;;;;;3.87;1.40;;;;;;;-145.69;74.33;52246.34;5094336;28;20544;-79
2024/04/05 05:37:34;;;;;;;6.67;1.57;;;;;;;-145.69;73.35;52242.38;5094463;28;20225;-80
2024/04/05 05:40:01;;;;;;;4.07;1.57;;;;;;;-145.69;74.07;52242.38;5094526;28;20204;-79
2024/04/05 05:42:28;;;;;;;2.67;1.40;;;;;;;-145.69;73.77;52242.38;5094412;28;20222;-80
2024/04/05 05:44:54;;;;;;;6.43;1.80;;;;;;;-145.69;72.96;52250.31;5094180;28;20565;-80
2024/04/05 05:47:20;;;;;;;6.83;1.40;;;;;;;-145.69;73.20;52278.03;5093589;28;20198;-79
2024/04/05 05:49:49;;;;;;;5.00;1.50;;;;;;;-145.69;72.63;52234.47;5094098;28;20213;-80
2024/04/05 05:52:15;;;;;;;4.17;1.93;;;;;;;-145.69;72.28;52232.50;5094132;28;20201;-79
2024/04/05 05:54:41;;;;;;;2.75;1.38;;;;;;;-145.69;71.48;52226.53;5093920;28;20198;-80
2024/04/05 05:57:07;;;;;;;4.40;1.23;;;;;;;-145.69;70.02;52274.06;5093691;28;20194;-78
2024/04/05 05:59:35;;;;;;;4.43;1.53;;;;;;;-145.69;70.01;52234.47;5093415;28;20200;-79
2024/04/05 06:02:00;;;;;;;7.17;1.50;;;;;;;-145.69;70.11;52262.19;5093683;28;20217;-79
2024/04/05 06:04:27;;;;;;;7.67;1.43;;;;;;;-145.69;69.36;52226.53;5093248;28;20198;-79
2024/04/05 06:06:54;;;;;;;2.83;1.57;;;;;;;-145.69;69.46;52246.34;5093917;28;20650;-79
2024/04/05 06:09:22;;;;;;;5.40;1.60;;;;;;;-145.69;68.40;52248.34;5094216;28;20217;-78
2024/04/05 06:11:47;;;;;;;2.53;1.50;;;;;;;-145.69;68.12;52230.50;5093560;28;20603;-81
2024/04/05 06:14:14;;;;;;;4.00;1.30;;;;;;;-145.69;66.27;52222.59;5093774;28;20294;-80
2024/04/05 06:16:41;;;;;;;4.75;1.27;;;;;;;-145.69;65.52;52214.66;5093615;28;20325;-80
2024/04/05 06:19:08;;;;;;;2.88;1.40;;;;;;;-145.69;63.86;52230.50;5092783;28;20194;-80
2024/04/05 06:21:33;;;;;;;3.22;1.20;;;;;;;-145.69;62.94;52230.50;5093603;28;20251;-81
2024/04/05 06:24:00;;;;;;;2.13;1.17;;;;;;;-145.69;62.46;52234.47;5093225;28;20579;-80
2024/04/05 06:26:26;;;;;;;4.53;1.45;;;;;;;-145.69;62.42;52222.59;5092876;28;20699;-79
2024/04/05 06:28:53;;;;;;;2.75;1.05;;;;;;;-145.69;61.85;52179.03;5093651;28;20194;-79
2024/04/05 06:31:19;;;;;;;3.30;1.25;;;;;;;-145.69;60.65;52190.91;5093449;28;20194;-80
2024/04/05 06:33:47;;;;;;;4.50;1.20;;;;;;;-145.69;59.40;52198.81;5093373;28;20279;-80
2024/04/05 06:36:12;;;;;;;3.75;1.00;;;;;;;-145.69;59.42;52179.03;5093467;28;20217;-80
2024/04/05 06:38:39;;;;;;;4.32;1.00;;;;;;;-145.69;57.50;52167.13;5093328;28;20657;-79
2024/04/05 06:41:06;;;;;;;3.88;1.13;;;;;;;-145.69;55.14;52165.16;5093136;28;20290;-80
2024/04/05 06:43:33;;;;;;;3.60;0.80;;;;;;;-145.69;51.50;52171.09;5092276;28;20279;-81
2024/04/05 06:46:03;;;;;;;4.30;1.13;;;;;;;-145.69;51.28;52179.03;5093172;28;20252;-80
2024/04/05 06:48:31;;;;;;;3.13;0.75;;;;;;;-145.69;51.21;52169.13;5093164;28;20206;-79
2024/04/05 06:50:58;;;;;;;3.17;1.00;;;;;;;-145.69;50.78;52167.13;5093029;28;20229;-79
2024/04/05 06:53:25;;;;;;;2.55;0.70;;;;;;;-145.69;50.17;52157.25;5090019;28;20280;-80
2024/04/05 06:55:51;;;;;;;3.67;0.90;;;;;;;-145.69;48.75;52163.19;5091090;28;20201;-79
2024/04/05 06:58:18;;;;;;;3.10;0.80;;;;;;;-145.69;49.66;52167.13;5092137;28;20611;-80
2024/04/05 07:00:45;;;;;;;3.83;1.05;;;;;;;-145.69;49.20;52161.19;5092551;28;20243;-80
2024/04/05 07:03:12;;;;;;;3.33;1.00;;;;;;;-145.69;49.39;52147.34;5092303;28;20236;-80
2024/04/05 07:05:38;;;;;;;4.75;1.35;;;;;;;-145.69;49.18;52143.38;5093032;28;20569;-80
2024/04/05 07:08:11;;;;;;;3.50;1.20;;;;;;;-145.69;48.92;52115.66;5092575;28;20201;-81
2024/04/05 07:10:37;;;;;;;3.40;1.08;;;;;;;-145.69;47.00;52127.53;5092408;28;20190;-81
2024/04/05 07:13:03;;;;;;;3.10;0.85;;;;;;;-145.69;45.88;52147.34;5092574;28;20611;-80
2024/04/05 07:15:29;;;;;;;5.28;1.00;;;;;;;-145.69;46.02;52131.50;5092324;28;20599;-80
2024/04/05 07:17:58;;;;;;;2.35;0.88;;;;;;;-145.69;45.46;52115.66;5092277;28;20233;-80
2024/04/05 07:20:25;;;;;;;1.42;1.00;;;;;;;-145.69;45.25;52135.47;5092469;28;20694;-80
2024/04/05 07:22:52;;;;;;;1.95;0.70;;;;;;;-145.69;44.96;52119.63;5092374;28;20222;-80
2024/04/05 07:25:20;;;;;;;4.78;0.90;;;;;;;-145.69;44.65;52109.72;5092221;28;20206;-80
2024/04/05 07:27:51;;;;;;;2.17;0.75;;;;;;;-145.69;44.74;52119.63;5091365;28;20201;-81
2024/04/05 07:30:17;;;;;;;2.10;1.10;;;;;;;-145.69;45.57;52151.28;5092749;28;20202;-80
2024/04/05 07:32:43;;;;;;;2.00;0.75;;;;;;;-145.69;44.40;52131.50;5092494;28;20672;-80
2024/04/05 07:35:10;;;;;;;4.47;1.13;;;;;;;-145.69;43.32;52105.75;5092519;28;20202;-80
2024/04/05 07:37:35;;;;;;;5.13;0.90;;;;;;;-145.69;43.02;52083.97;5091947;28;20289;-79
2024/04/05 07:40:02;;;;;;;5.53;1.00;;;;;;;-145.69;42.74;52076.03;5092464;28;20286;-81
2024/04/05 07:42:29;;;;;;;1.92;0.93;;;;;;;-145.69;41.04;52129.50;5092259;28;20232;-80
2024/04/05 07:44:56;;;;;;;6.47;1.40;;;;;;;-145.69;41.09;52091.88;5092509;28;20198;-81
2024/04/05 07:47:24;;;;;;;5.93;0.95;;;;;;;-145.69;41.03;52089.91;5092415;28;20210;-80
2024/04/05 07:49:54;;;;;;;5.95;0.93;;;;;;;-145.69;41.42;52076.03;5092514;28;20253;-82
2024/04/05 07:52:21;;;;;;;3.08;0.95;;;;;;;-145.69;41.40;52131.50;5092108;28;20201;-80
2024/04/05 07:54:46;;;;;;;4.50;0.90;;;;;;;-145.69;41.29;52105.75;5093855;28;20209;-80
2024/04/05 07:57:13;;;;;;;1.98;1.10;;;;;;;-145.69;41.68;52115.66;5096046;28;20202;-80
2024/04/05 07:59:46;;;;;;;2.47;0.93;;;;;;;-145.69;41.95;52091.88;5096804;28;20202;-80
2024/04/05 08:02:13;;;;;;;2.20;0.80;;;;;;;-145.69;41.94;52111.69;5096280;28;20254;-80
2024/04/05 08:04:41;;;;;;;4.78;1.00;;;;;;;-145.69;41.89;52093.88;5096314;28;20198;-79
2024/04/05 08:07:08;;;;;;;3.15;1.00;;;;;;;-145.69;42.18;52113.66;5093742;28;20202;-78
2024/04/05 08:09:34;;;;;;;3.88;0.90;;;;;;;-145.69;43.40;52107.72;5095854;28;20194;-79
2024/04/05 08:12:00;;;;;;;3.22;1.00;;;;;;;-145.69;42.82;52113.66;5096555;28;20213;-78
2024/04/05 08:14:29;;;;;;;3.47;1.02;;;;;;;-145.69;42.43;52093.88;5095629;28;20243;-78
2024/04/05 08:16:57;;;;;;;4.53;0.70;;;;;;;-145.69;42.90;52103.78;5095758;28;20238;-80
2024/04/05 08:19:25;;;;;;;2.63;0.90;;;;;;;-145.69;42.63;52135.47;5096094;28;20198;-80
2024/04/05 08:21:51;;;;;;;4.43;0.80;;;;;;;-145.69;41.44;52109.72;5095545;28;20190;-79
2024/04/05 08:24:18;;;;;;;1.50;0.63;;;;;;;-145.69;42.55;52074.06;5095654;28;20676;-79
2024/04/05 08:26:47;;;;;;;1.92;0.90;;;;;;;-145.69;42.50;52085.94;5095715;28;20243;-79
2024/04/05 08:29:13;;;;;;;3.67;0.73;;;;;;;-145.69;41.19;52044.38;5095832;28;20206;-80
2024/04/05 08:31:39;;;;;;;0.90;0.60;;;;;;;-145.69;41.60;52052.28;5095403;28;20553;-81
2024/04/05 08:34:07;;;;;;;6.07;0.60;;;;;;;-145.69;40.62;52087.94;5095849;28;20202;-78
2024/04/05 08:36:33;;;;;;;3.13;0.80;;;;;;;-145.69;41.10;52076.03;5095554;28;20216;-79
2024/04/05 08:39:00;;;;;;;1.55;0.77;;;;;;;-145.69;40.77;52083.97;5095671;28;20293;-78
2024/04/05 08:41:32;;;;;;;1.25;0.80;;;;;;;-145.69;40.79;52062.19;5095675;28;20202;-79
2024/04/05 08:43:58;;;;;;;2.08;0.65;;;;;;;-145.69;39.78;52078.03;5095657;28;20226;-79
2024/04/05 08:46:27;;;;;;;1.20;0.60;;;;;;;-145.69;39.93;52080.00;5095366;28;20206;-82
2024/04/05 08:48:55;;;;;;;2.40;0.80;;;;;;;-145.69;40.51;52076.03;5095359;28;20206;-81
2024/04/05 08:51:23;;;;;;;2.67;0.63;;;;;;;-145.69;40.06;52076.03;5095086;28;20302;-81
2024/04/05 08:53:49;;;;;;;2.97;0.70;;;;;;;-145.69;40.26;52068.13;5095481;28;20213;-79
2024/04/05 08:56:20;;;;;;;2.33;0.80;;;;;;;-145.69;39.91;52064.16;5091791;28;20195;-79
2024/04/05 08:58:50;;;;;;;4.57;0.90;;;;;;;-145.69;39.14;52087.94;5074976;28;20199;-81
2024/04/05 09:01:17;;;;;;;2.10;0.65;;;;;;;-145.69;39.09;52074.06;5074955;28;20229;-81
2024/04/05 09:03:43;;;;;;;1.17;0.68;;;;;;;-145.69;38.76;52076.03;5085840;28;20684;-81
2024/04/05 09:06:11;;;;;;;1.05;0.60;;;;;;;-145.69;38.14;52072.09;5094216;28;20200;-81
2024/04/05 09:08:44;;;;;;;1.25;0.50;;;;;;;-145.69;37.62;52080.00;5095099;28;20653;-80
2024/04/05 09:11:10;;;;;;;3.25;0.68;;;;;;;-145.69;38.68;52089.91;5094652;28;20247;-79
2024/04/05 09:13:36;;;;;;;2.90;0.88;;;;;;;-145.69;39.41;52087.94;5093162;28;20201;-81
2024/04/05 09:16:03;;;;;;;2.15;0.68;;;;;;;-145.69;38.42;52048.31;5094438;28;20201;-80
2024/04/05 09:18:29;;;;;;;2.05;0.55;;;;;;;-145.69;39.43;52060.22;5095582;28;20238;-80
2024/04/05 09:20:56;;;;;;;3.00;0.70;;;;;;;-145.69;38.10;52044.38;5094904;28;20236;-79
2024/04/05 09:23:23;;;;;;;2.55;0.60;;;;;;;-145.69;37.91;52062.19;5094214;28;20320;-79
2024/04/05 09:26:02;;;;;;;1.55;0.63;;;;;;;-145.69;38.18;52068.13;5094715;28;20285;-78
2024/04/05 09:28:29;;;;;;;1.77;0.70;;;;;;;-145.69;37.95;52044.38;5094459;28;20204;-79
2024/04/05 09:30:59;;;;;;;1.33;0.55;;;;;;;-145.69;38.63;52062.19;5094294;28;20200;-77
2024/04/05 09:33:25;;;;;;;2.25;0.55;;;;;;;-145.69;38.24;52066.16;5094370;28;20201;-78
2024/04/05 09:35:54;;;;;;;3.28;0.80;;;;;;;-145.69;39.16;52072.09;5094677;28;20664;-78
2024/04/05 09:38:20;;;;;;;3.25;0.60;;;;;;;-145.69;38.78;52052.28;5094016;28;20194;-78
2024/04/05 09:40:48;;;;;;;3.00;0.80;;;;;;;-145.69;40.01;52056.25;5094149;28;20206;-78
2024/04/05 09:43:17;;;;;;;3.13;0.80;;;;;;;-145.69;38.91;52095.84;5094229;28;20320;-78
2024/04/05 09:45:47;;;;;;;1.90;0.52;;;;;;;-145.69;37.52;52056.25;5094263;28;20282;-78
2024/04/05 09:48:12;;;;;;;2.35;0.60;;;;;;;-145.69;37.91;52060.22;5094008;28;20198;-79
2024/04/05 09:50:42;;;;;;;1.17;0.77;;;;;;;-145.69;38.74;52040.41;5094235;28;20600;-79
2024/04/05 09:53:08;;;;;;;1.98;0.68;;;;;;;-145.69;37.56;52068.13;5094241;28;20210;-79
2024/04/05 09:55:39;;;;;;;2.40;0.73;;;;;;;-145.69;38.17;52044.38;5093832;28;20220;-79
2024/04/05 09:58:07;;;;;;;1.30;0.60;;;;;;;-145.69;37.75;52042.38;5093975;28;20206;-75
2024/04/05 10:00:38;;;;;;;1.48;0.50;;;;;;;-145.69;38.24;52046.34;5094352;28;20285;-78
2024/04/05 10:03:05;;;;;;;1.92;0.90;;;;;;;-145.69;37.72;52076.03;5093596;28;20241;-80
2024/04/05 10:05:33;;;;;;;0.52;0.47;;;;;;;-145.69;36.66;52040.41;5093598;28;20285;-79
2024/04/05 10:08:08;;;;;;;3.38;0.63;;;;;;;-145.69;36.96;52026.53;5093914;28;20194;-79
2024/04/05 10:10:35;;;;;;;1.08;0.60;;;;;;;-145.69;37.87;52068.13;5093828;28;20237;-79
2024/04/05 10:13:14;;;;;;;3.72;0.70;;;;;;;-145.69;36.90;52024.56;5093982;28;20206;-79
2024/04/05 10:15:54;;;;;;;1.02;0.60;;;;;;;-145.69;37.11;52012.69;5092699;28;20198;-77
2024/04/05 10:18:24;;;;;;;1.92;0.63;;;;;;;-145.69;35.15;51988.91;5092642;28;20284;-78
2024/04/05 10:21:02;;;;;;;1.58;0.65;;;;;;;-145.69;35.67;51957.25;5093518;28;20206;-78
2024/04/05 10:23:28;;;;;;;1.17;0.60;;;;;;;-145.69;35.37;52008.72;5093554;28;20236;-78
2024/04/05 10:25:54;;;;;;;0.90;0.63;;;;;;;-145.69;35.93;52016.66;5093392;28;20205;-79
2024/04/05 10:28:22;;;;;;;5.03;0.70;;;;;;;-145.69;34.84;52010.69;5093006;28;20194;-79
2024/04/05 10:30:50;;;;;;;4.15;0.60;;;;;;;-145.69;34.06;51988.91;5093426;28;20297;-77
2024/04/05 10:33:19;;;;;;;4.10;0.63;;;;;;;-145.69;35.67;51981.00;5092956;28;20202;-79
2024/04/05 10:35:46;;;;;;;2.63;0.60;;;;;;;-145.69;34.97;52020.59;5093243;28;20190;-79
2024/04/05 10:38:11;;;;;;;2.58;0.50;;;;;;;-145.69;33.79;52000.81;5093132;28;20189;-78
2024/04/05 10:40:38;;;;;;;1.02;0.50;;;;;;;-145.69;33.59;51975.06;5093443;28;20259;-80
2024/04/05 10:43:07;;;;;;;4.80;0.60;;;;;;;-145.69;33.58;51977.03;5093063;28;20221;-80
2024/04/05 10:45:34;;;;;;;0.95;0.60;;;;;;;-145.69;34.72;51959.22;5093022;28;20202;-78
2024/04/05 10:48:01;;;;;;;2.75;0.68;;;;;;;-145.69;33.59;51965.16;5089266;28;20232;-79
2024/04/05 10:50:31;;;;;;;3.50;0.43;;;;;;;-145.69;33.41;51943.38;5093124;28;20202;-77
2024/04/05 10:53:03;;;;;;;2.80;0.52;;;;;;;-145.69;33.28;51907.72;5092628;28;20561;-77
2024/04/05 10:55:31;;;;;;;2.65;0.40;;;;;;;-145.69;31.92;51917.63;5093036;28;20209;-78
2024/04/05 10:58:02;;;;;;;1.27;0.68;;;;;;;-145.69;31.90;51911.69;5092877;28;20202;-77
2024/04/05 11:00:30;;;;;;;0.30;0.30;;;;;;;-145.69;31.11;51939.41;5092629;28;20200;-78
2024/04/05 11:02:56;;;;;;;2.28;0.40;;;;;;;-145.69;31.71;51947.34;5092705;28;20580;-79
2024/04/05 11:05:24;;;;;;;1.55;0.60;;;;;;;-145.69;31.14;51911.69;5092866;28;20660;-79
2024/04/05 11:08:00;;;;;;;1.30;0.50;;;;;;;-145.69;30.00;51917.63;5092886;28;20209;-79
2024/04/05 11:10:35;;;;;;;1.30;0.57;;;;;;;-145.69;30.93;51893.88;5092451;28;20854;-79
2024/04/05 11:13:11;;;;;;;1.98;0.60;;;;;;;-145.69;30.64;51953.28;5092748;28;20209;-79
2024/04/05 11:15:41;;;;;;;0.88;0.60;;;;;;;-145.69;31.58;51941.41;5092971;28;20206;-78
2024/04/05 11:18:06;;;;;;;1.90;0.60;;;;;;;-145.69;31.32;51921.59;5092688;28;20226;-78